createdAt,value
2019-01-29T01:53:02.964Z,91.89
2019-01-29T01:55:35.358Z,91.47
2019-01-29T01:58:04.545Z,91.55
2019-01-29T02:00:35.098Z,91.41
2019-01-29T02:03:04.268Z,90.95
2019-01-29T02:05:33.421Z,90.97
2019-01-29T02:08:03.616Z,91.06
2019-01-29T02:10:33.450Z,91.46
2019-01-29T02:13:05.065Z,91.26
2019-01-29T02:15:34.367Z,91.40
2019-01-29T02:18:03.574Z,91.34
2019-01-29T02:20:33.754Z,91.23
2019-01-29T02:23:08.155Z,91.44
2019-01-29T02:25:38.072Z,91.58
2019-01-29T02:28:07.961Z,90.98
2019-01-29T02:30:38.179Z,91.08
2019-01-29T02:33:07.387Z,91.06
2019-01-29T02:35:36.619Z,90.61
2019-01-29T02:38:05.787Z,90.90
2019-01-29T02:40:34.922Z,90.24
2019-01-29T02:43:04.190Z,90.02
2019-01-29T02:45:33.515Z,89.96
2019-01-29T02:48:02.682Z,89.17
2019-01-29T02:50:32.062Z,89.82
2019-01-29T02:53:01.160Z,89.84
2019-01-29T02:55:30.301Z,90.54
2019-01-29T02:58:01.919Z,90.33
2019-01-29T03:00:31.342Z,90.53
2019-01-29T03:03:00.550Z,90.15
2019-01-29T03:05:29.742Z,89.69
2019-01-29T03:07:58.989Z,90.17
2019-01-29T03:10:28.923Z,90.24
2019-01-29T03:12:58.053Z,89.88
2019-01-29T03:15:34.618Z,89.62
2019-01-29T03:18:04.730Z,89.57
2019-01-29T03:20:35.580Z,89.72
2019-01-29T03:23:04.753Z,89.40
2019-01-29T03:25:37.322Z,89.53
2019-01-29T03:28:08.813Z,89.35
2019-01-29T03:30:38.017Z,89.69
2019-01-29T03:33:08.540Z,89.66
2019-01-29T03:35:37.597Z,89.53
2019-01-29T03:38:06.791Z,89.16
2019-01-29T03:40:35.911Z,89.43
2019-01-29T03:43:07.385Z,89.51
2019-01-29T03:45:36.583Z,90.07
2019-01-29T03:48:05.800Z,89.82
2019-01-29T03:50:35.032Z,89.83
2019-01-29T03:53:04.173Z,89.40
2019-01-29T03:55:33.488Z,89.93
2019-01-29T03:58:04.197Z,89.65
2019-01-29T04:00:33.484Z,89.71
2019-01-29T04:03:06.384Z,89.48
2019-01-29T04:05:35.571Z,89.13
2019-01-29T04:08:06.560Z,89.26
2019-01-29T04:10:37.322Z,89.11
2019-01-29T04:13:08.541Z,89.10
2019-01-29T04:15:38.739Z,89.31
2019-01-29T04:18:09.660Z,89.97
2019-01-29T04:20:38.874Z,89.66
2019-01-29T04:23:11.257Z,89.66
2019-01-29T04:25:43.517Z,88.59
2019-01-29T04:28:13.716Z,89.06
2019-01-29T04:30:44.242Z,88.93
2019-01-29T04:33:13.409Z,88.79
2019-01-29T04:35:42.608Z,88.81
2019-01-29T04:38:14.598Z,89.22
2019-01-29T04:40:43.766Z,88.39
2019-01-29T04:43:13.283Z,88.45
2019-01-29T04:45:42.663Z,88.66
2019-01-29T04:48:11.854Z,88.49
2019-01-29T04:50:41.170Z,88.08
2019-01-29T04:53:10.311Z,87.93
2019-01-29T04:55:41.668Z,87.86
2019-01-29T04:58:11.792Z,87.97
2019-01-29T05:00:41.496Z,87.68
2019-01-29T05:03:10.663Z,86.82
2019-01-29T05:05:39.814Z,87.25
2019-01-29T05:08:10.070Z,87.15
2019-01-29T05:10:39.308Z,86.35
2019-01-29T05:13:10.656Z,86.19
2019-01-29T05:15:40.707Z,86.56
2019-01-29T05:18:11.232Z,85.46
2019-01-29T05:20:40.351Z,86.20
2019-01-29T05:23:10.703Z,85.12
2019-01-29T05:25:39.912Z,86.11
2019-01-29T05:28:09.147Z,85.80
2019-01-29T05:30:38.317Z,85.58
2019-01-29T05:33:07.482Z,85.62
2019-01-29T05:35:36.569Z,85.67
2019-01-29T05:38:10.125Z,85.38
2019-01-29T05:40:41.170Z,85.59
2019-01-29T05:43:10.295Z,85.41
2019-01-29T05:45:39.490Z,84.95
2019-01-29T05:48:08.712Z,84.97
2019-01-29T05:50:37.840Z,85.47
2019-01-29T05:53:06.893Z,85.33
2019-01-29T05:55:36.039Z,85.20
2019-01-29T05:58:05.183Z,84.75
2019-01-29T06:00:37.235Z,84.70
2019-01-29T06:03:09.651Z,84.92
2019-01-29T06:05:38.767Z,85.65
2019-01-29T06:08:08.009Z,85.41
2019-01-29T06:10:37.221Z,85.39
2019-01-29T06:13:06.332Z,85.37
2019-01-29T06:15:36.994Z,84.52
2019-01-29T06:18:06.368Z,84.96
2019-01-29T06:20:36.761Z,86.24
2019-01-29T06:23:05.900Z,85.73
2019-01-29T06:25:35.170Z,85.33
2019-01-29T06:28:04.330Z,85.36
2019-01-29T06:30:33.427Z,84.27
2019-01-29T06:33:02.542Z,84.83
2019-01-29T06:35:31.797Z,86.02
2019-01-29T06:38:01.013Z,85.60
2019-01-29T06:40:31.515Z,85.42
2019-01-29T06:43:08.012Z,85.70
2019-01-29T06:45:37.116Z,85.64
2019-01-29T06:48:06.973Z,84.34
2019-01-29T06:50:36.116Z,83.86
2019-01-29T06:53:05.504Z,84.13
2019-01-29T06:55:34.682Z,83.77
2019-01-29T06:58:03.801Z,83.43
2019-01-29T07:00:33.187Z,82.90
2019-01-29T07:03:02.928Z,83.26
2019-01-29T07:05:32.004Z,83.01
2019-01-29T07:08:01.121Z,83.19
2019-01-29T07:10:30.519Z,82.81
2019-01-29T07:12:59.732Z,82.33
2019-01-29T07:16:06.567Z,80.89
2019-01-29T07:18:54.664Z,81.56
2019-01-29T07:21:23.851Z,82.13
2019-01-29T07:23:52.921Z,82.57
2019-01-29T07:26:22.326Z,82.03
2019-01-29T07:28:51.436Z,82.13
2019-01-29T07:31:22.518Z,82.62
2019-01-29T07:33:51.693Z,80.94
2019-01-29T07:36:20.877Z,81.94
2019-01-29T07:38:50.045Z,82.97
2019-01-29T07:41:19.253Z,81.31
2019-01-29T07:43:48.348Z,81.50
2019-01-29T07:46:20.532Z,81.50
2019-01-29T07:48:49.702Z,81.02
2019-01-29T07:51:18.844Z,81.34
2019-01-29T07:53:48.045Z,82.30
2019-01-29T07:56:19.338Z,81.25
2019-01-29T07:58:49.339Z,81.88
2019-01-29T08:01:18.511Z,82.23
2019-01-29T08:03:47.817Z,82.09
2019-01-29T08:06:20.107Z,82.47
2019-01-29T08:08:49.396Z,82.39
2019-01-29T08:11:18.558Z,82.14
2019-01-29T08:13:48.612Z,82.40
2019-01-29T08:16:23.728Z,82.35
2019-01-29T08:18:53.164Z,81.67
2019-01-29T08:21:22.541Z,82.15
2019-01-29T08:23:53.633Z,81.46
2019-01-29T08:26:23.749Z,80.45
2019-01-29T08:28:56.715Z,80.99
2019-01-29T08:31:28.204Z,82.10
2019-01-29T08:34:01.443Z,81.06
2019-01-29T08:36:32.821Z,81.67
2019-01-29T08:39:05.613Z,81.22
2019-01-29T08:41:35.840Z,81.66
2019-01-29T08:44:08.367Z,80.35
2019-01-29T08:46:37.558Z,80.83
2019-01-29T08:49:06.728Z,81.35
2019-01-29T08:51:35.946Z,81.47
2019-01-29T08:54:06.471Z,81.41
2019-01-29T08:56:35.592Z,81.39
2019-01-29T08:59:04.806Z,83.11
2019-01-29T09:01:34.777Z,81.95
2019-01-29T09:04:05.126Z,82.62
2019-01-29T09:06:36.962Z,81.84
2019-01-29T09:09:09.006Z,82.38
2019-01-29T09:11:39.532Z,80.82
2019-01-29T09:14:08.674Z,79.93
2019-01-29T09:16:38.134Z,80.02
2019-01-29T09:19:07.324Z,79.87
2019-01-29T09:21:38.468Z,79.60
2019-01-29T09:24:08.411Z,79.15
2019-01-29T09:26:37.531Z,78.63
2019-01-29T09:29:06.746Z,79.04
2019-01-29T09:31:36.167Z,78.41
2019-01-29T09:34:05.401Z,78.57
2019-01-29T09:36:34.687Z,78.15
2019-01-29T09:39:05.873Z,77.15
2019-01-29T09:41:39.441Z,77.72
2019-01-29T09:44:12.097Z,77.81
2019-01-29T09:46:43.668Z,78.58
2019-01-29T09:49:14.148Z,77.03
2019-01-29T09:51:45.060Z,77.53
2019-01-29T09:54:14.235Z,77.37
2019-01-29T09:56:43.420Z,77.55
2019-01-29T09:59:13.191Z,76.96
2019-01-29T10:01:42.943Z,76.89
2019-01-29T10:04:12.384Z,76.64
2019-01-29T10:06:41.472Z,76.45
2019-01-29T10:09:15.717Z,75.68
2019-01-29T10:11:44.883Z,75.87
2019-01-29T10:14:16.877Z,76.35
2019-01-29T10:16:50.758Z,75.42
2019-01-29T10:19:20.522Z,76.28
2019-01-29T10:21:49.805Z,75.89
2019-01-29T10:24:20.740Z,75.60
2019-01-29T10:26:51.348Z,74.39
2019-01-29T10:29:20.454Z,74.48
2019-01-29T10:31:57.490Z,74.16
2019-01-29T10:34:26.708Z,74.27
2019-01-29T10:36:55.956Z,73.22
2019-01-29T10:39:25.324Z,73.04
2019-01-29T10:42:02.866Z,73.55
2019-01-29T10:44:32.456Z,75.21
2019-01-29T10:47:01.671Z,74.95
2019-01-29T10:49:34.660Z,74.15
2019-01-29T10:52:06.220Z,75.33
2019-01-29T10:54:35.988Z,76.04
2019-01-29T10:57:07.478Z,72.78
2019-01-29T10:59:36.609Z,73.40
2019-01-29T11:02:08.614Z,73.05
2019-01-29T11:04:44.712Z,72.69
2019-01-29T11:07:13.963Z,71.56
2019-01-29T11:09:44.892Z,73.90
2019-01-29T11:12:16.793Z,73.47
2019-01-29T11:14:46.516Z,74.07
2019-01-29T11:17:17.009Z,71.94
2019-01-29T11:19:46.186Z,72.09
2019-01-29T11:22:18.378Z,72.37
2019-01-29T11:24:56.311Z,71.92
2019-01-29T11:27:27.295Z,72.01
2019-01-29T11:29:56.908Z,70.52
2019-01-29T11:32:29.802Z,69.52
2019-01-29T11:34:58.929Z,70.00
2019-01-29T11:37:28.098Z,73.18
2019-01-29T11:39:57.258Z,71.25
2019-01-29T11:42:27.534Z,71.40
2019-01-29T11:44:59.312Z,73.20
2019-01-29T11:47:28.921Z,73.28
2019-01-29T11:49:59.322Z,71.38
2019-01-29T11:52:49.171Z,72.64
2019-01-29T11:55:18.980Z,72.23
2019-01-29T11:57:48.110Z,69.41
2019-01-29T12:00:27.798Z,70.55
2019-01-29T12:02:57.016Z,70.75
2019-01-29T12:05:29.277Z,67.46
2019-01-29T12:07:58.633Z,68.16
2019-01-29T12:10:36.821Z,68.63
2019-01-29T12:13:06.607Z,65.62
2019-01-29T12:15:36.768Z,66.05
2019-01-29T12:18:13.128Z,66.11
2019-01-29T12:20:43.712Z,67.61
2019-01-29T12:23:14.676Z,67.80
2019-01-29T12:25:44.342Z,67.00
2019-01-29T12:28:13.650Z,66.32
2019-01-29T12:30:44.824Z,67.41
2019-01-29T12:33:14.069Z,66.71
2019-01-29T12:35:44.481Z,66.04
2019-01-29T12:38:13.968Z,65.58
2019-01-29T12:40:43.264Z,66.69
2019-01-29T12:43:12.927Z,65.47
2019-01-29T12:45:42.206Z,65.63
2019-01-29T12:48:12.880Z,65.33
2019-01-29T12:50:49.436Z,67.04
2019-01-29T12:53:21.078Z,66.98
2019-01-29T12:55:50.928Z,64.63
2019-01-29T12:58:20.259Z,66.26
2019-01-29T13:00:59.835Z,62.90
2019-01-29T13:03:29.287Z,65.75
2019-01-29T13:06:00.599Z,64.75
2019-01-29T13:08:29.825Z,65.72
2019-01-29T13:11:01.962Z,66.50
2019-01-29T13:13:31.337Z,65.54
2019-01-29T13:16:00.528Z,66.55
2019-01-29T13:18:29.768Z,67.36
2019-01-29T13:20:58.880Z,68.49
2019-01-29T13:23:28.065Z,68.23
2019-01-29T13:25:57.337Z,66.37
2019-01-29T13:28:26.696Z,66.70
2019-01-29T13:30:55.962Z,68.91
2019-01-29T13:33:25.305Z,69.79
2019-01-29T13:35:55.869Z,67.42
2019-01-29T13:38:25.066Z,68.65
2019-01-29T13:40:54.384Z,70.07
2019-01-29T13:43:23.517Z,68.32
2019-01-29T13:45:52.763Z,69.27
2019-01-29T13:48:23.275Z,68.40
2019-01-29T13:50:56.707Z,69.45
2019-01-29T13:53:26.483Z,70.50
2019-01-29T13:55:55.686Z,69.78
2019-01-29T13:58:24.789Z,69.22
2019-01-29T14:00:53.912Z,70.34
2019-01-29T14:03:23.103Z,70.05
2019-01-29T14:05:52.331Z,72.44
2019-01-29T14:08:22.605Z,70.34
2019-01-29T14:10:53.812Z,71.26
2019-01-29T14:13:23.102Z,71.63
2019-01-29T14:15:54.437Z,71.19
2019-01-29T14:18:26.879Z,71.58
2019-01-29T14:20:56.254Z,72.43
2019-01-29T14:23:26.983Z,71.60
2019-01-29T14:25:56.230Z,72.16
2019-01-29T14:28:29.753Z,72.69
2019-01-29T14:30:58.958Z,74.19
2019-01-29T14:33:34.628Z,73.77
2019-01-29T14:36:16.412Z,74.88
2019-01-29T14:39:18.377Z,74.86
2019-01-29T14:41:47.562Z,73.54
2019-01-29T14:44:21.903Z,75.48
2019-01-29T14:46:52.773Z,75.46
2019-01-29T14:49:24.558Z,76.11
2019-01-29T14:51:53.742Z,75.46
2019-01-29T14:54:22.879Z,75.10
2019-01-29T14:56:57.041Z,75.83
2019-01-29T14:59:23.124Z,75.59
2019-01-29T15:01:52.567Z,76.26
2019-01-29T15:04:24.975Z,77.44
2019-01-29T15:06:54.167Z,77.71
2019-01-29T15:09:23.337Z,76.87
2019-01-29T15:11:52.631Z,78.78
2019-01-29T15:14:21.931Z,79.04
2019-01-29T15:17:05.750Z,78.90
2019-01-29T15:19:35.445Z,79.74
2019-01-29T15:22:06.132Z,81.54
2019-01-29T15:24:35.432Z,81.43
2019-01-29T15:27:10.461Z,82.40
2019-01-29T15:29:39.606Z,83.21
2019-01-29T15:32:09.778Z,83.86
2019-01-29T15:34:40.417Z,84.33
2019-01-29T15:37:09.789Z,84.50
2019-01-29T15:39:39.032Z,85.32
2019-01-29T15:42:09.877Z,85.33
2019-01-29T15:44:39.204Z,85.23
2019-01-29T15:47:08.480Z,85.37
2019-01-29T15:49:37.617Z,85.45
2019-01-29T15:52:06.749Z,85.31
2019-01-29T15:54:36.179Z,85.80
2019-01-29T15:57:14.132Z,86.03
2019-01-29T15:59:50.820Z,86.51
2019-01-29T16:02:20.305Z,86.60
2019-01-29T16:05:04.798Z,86.74
2019-01-29T16:07:34.095Z,86.19
2019-01-29T16:10:04.510Z,86.70
2019-01-29T16:12:34.420Z,86.89
2019-01-29T16:15:06.129Z,87.28
2019-01-29T16:17:38.614Z,86.89
2019-01-29T16:20:08.733Z,87.23
2019-01-29T16:22:37.861Z,87.74
2019-01-29T16:25:08.610Z,87.83
2019-01-29T16:27:39.252Z,88.00
2019-01-29T16:30:13.902Z,88.40
2019-01-29T16:32:43.284Z,88.51
2019-01-29T16:35:14.730Z,88.90
2019-01-29T16:37:46.061Z,88.91
2019-01-29T16:40:17.176Z,89.18
2019-01-29T16:42:46.359Z,89.27
2019-01-29T16:45:20.983Z,89.64
2019-01-29T16:47:52.535Z,89.68
2019-01-29T16:50:26.542Z,90.08
2019-01-29T16:53:01.837Z,90.57
2019-01-29T16:55:31.755Z,90.86
2019-01-29T16:58:03.543Z,91.06
2019-01-29T17:00:33.046Z,91.26
2019-01-29T17:03:04.517Z,90.90
2019-01-29T17:05:33.651Z,91.00
2019-01-29T17:08:02.766Z,91.27
2019-01-29T17:10:32.018Z,91.70
2019-01-29T17:13:01.213Z,91.33
2019-01-29T17:15:30.701Z,91.18
2019-01-29T17:18:00.622Z,91.25
2019-01-29T17:20:32.116Z,91.25
2019-01-29T17:23:01.296Z,91.33
2019-01-29T17:25:30.423Z,91.61
2019-01-29T17:27:59.492Z,91.75
2019-01-29T17:30:31.451Z,91.68
2019-01-29T17:33:00.841Z,91.63
2019-01-29T17:35:29.952Z,91.72
2019-01-29T17:37:59.090Z,91.93
2019-01-29T17:40:28.290Z,91.94
2019-01-29T17:42:57.434Z,91.99
2019-01-29T17:45:29.014Z,92.16
2019-01-29T17:47:58.139Z,92.15
2019-01-29T17:50:29.347Z,92.19
2019-01-29T17:52:58.418Z,92.35
2019-01-29T17:55:28.602Z,92.30
2019-01-29T17:57:57.727Z,92.40
2019-01-29T18:00:30.834Z,92.52
2019-01-29T18:02:59.962Z,92.38
2019-01-29T18:05:29.097Z,92.57
2019-01-29T18:07:58.232Z,92.59
2019-01-29T18:10:27.362Z,92.86
2019-01-29T18:12:56.488Z,92.92
2019-01-29T18:15:27.149Z,92.99
2019-01-29T18:17:56.367Z,92.88
2019-01-29T18:20:25.749Z,92.87
2019-01-29T18:22:54.831Z,92.89
2019-01-29T18:25:24.030Z,92.84
2019-01-29T18:28:00.938Z,92.88
2019-01-29T18:30:26.233Z,92.96
2019-01-29T18:32:55.280Z,92.93
2019-01-29T18:35:24.466Z,92.87
2019-01-29T18:37:53.615Z,92.88
2019-01-29T18:40:25.528Z,92.57
2019-01-29T18:42:54.654Z,92.60
2019-01-29T18:45:23.758Z,92.61
2019-01-29T18:47:52.861Z,92.52
2019-01-29T18:50:22.088Z,92.49
2019-01-29T18:52:51.251Z,92.49
2019-01-29T18:55:20.384Z,92.62
2019-01-29T18:57:49.451Z,92.79
2019-01-29T19:00:20.437Z,92.83
2019-01-29T19:02:49.533Z,92.98
2019-01-29T19:05:19.100Z,93.05
2019-01-29T19:07:48.246Z,93.11
2019-01-29T19:10:18.359Z,92.96
2019-01-29T19:12:49.660Z,92.85
2019-01-29T19:15:19.937Z,92.97
2019-01-29T19:17:49.058Z,93.09
2019-01-29T19:20:19.810Z,92.98
2019-01-29T19:22:48.916Z,93.11
2019-01-29T19:25:18.202Z,93.20
2019-01-29T19:27:47.303Z,93.31
2019-01-29T19:30:21.704Z,93.29
2019-01-29T19:32:50.858Z,93.36
2019-01-29T19:35:20.029Z,93.24
2019-01-29T19:37:49.100Z,93.10
2019-01-29T19:40:18.402Z,92.96
2019-01-29T19:42:47.428Z,92.81
2019-01-29T19:45:21.526Z,92.60
2019-01-29T19:47:50.683Z,92.64
2019-01-29T19:50:21.723Z,92.62
2019-01-29T19:52:50.843Z,92.36
2019-01-29T19:55:20.255Z,92.42
2019-01-29T19:57:49.369Z,92.35
2019-01-29T20:00:23.519Z,92.15
2019-01-29T20:02:52.674Z,92.18
2019-01-29T20:05:21.842Z,92.08
2019-01-29T20:07:51.041Z,92.15
2019-01-29T20:10:20.199Z,92.13
2019-01-29T20:12:49.307Z,91.96
2019-01-29T20:15:18.903Z,91.84
2019-01-29T20:17:48.995Z,91.75
2019-01-29T20:20:20.957Z,91.39
2019-01-29T20:22:50.162Z,91.25
2019-01-29T20:25:19.252Z,91.12
2019-01-29T20:27:48.354Z,91.11
2019-01-29T20:30:20.218Z,91.25
2019-01-29T20:32:53.505Z,91.29
2019-01-29T20:35:20.241Z,91.30
2019-01-29T20:37:49.420Z,91.43
2019-01-29T20:40:18.935Z,91.46
2019-01-29T20:42:48.080Z,91.53
2019-01-29T20:45:17.220Z,91.66
2019-01-29T20:47:46.374Z,91.75
2019-01-29T20:50:27.186Z,91.82
2019-01-29T20:52:56.350Z,91.79
2019-01-29T20:55:25.469Z,91.76
2019-01-29T20:57:54.709Z,91.68
2019-01-29T21:00:26.404Z,91.61
2019-01-29T21:02:55.565Z,91.47
2019-01-29T21:05:24.696Z,91.37
2019-01-29T21:07:53.813Z,91.45
2019-01-29T21:10:22.959Z,91.46
2019-01-29T21:12:52.072Z,91.52
2019-01-29T21:15:21.985Z,91.52
2019-01-29T21:17:51.292Z,91.58
2019-01-29T21:20:22.466Z,91.58
2019-01-29T21:22:51.739Z,91.64
2019-01-29T21:25:20.850Z,91.68
2019-01-29T21:27:50.009Z,91.84
2019-01-29T21:30:24.417Z,91.85
2019-01-29T21:32:53.636Z,91.84
2019-01-29T21:35:22.769Z,91.96
2019-01-29T21:37:51.859Z,92.49
2019-01-29T21:40:21.138Z,92.61
2019-01-29T21:42:50.296Z,92.78
2019-01-29T21:45:19.475Z,93.11
2019-01-29T21:47:48.666Z,93.42
2019-01-29T21:50:22.835Z,93.31
2019-01-29T21:52:51.988Z,93.69
2019-01-29T21:55:21.127Z,94.00
2019-01-29T21:57:50.287Z,94.00
2019-01-29T22:00:28.043Z,94.04
2019-01-29T22:02:57.143Z,94.25
2019-01-29T22:05:26.270Z,94.19
2019-01-29T22:07:57.524Z,94.43
2019-01-29T22:10:26.374Z,94.48
2019-01-29T22:12:55.516Z,94.57
2019-01-29T22:15:24.693Z,94.80
2019-01-29T22:17:54.912Z,94.87
2019-01-29T22:20:24.457Z,94.96
2019-01-29T22:22:53.930Z,95.08
2019-01-29T22:25:23.094Z,95.20
2019-01-29T22:27:52.199Z,95.36
2019-01-29T22:30:32.327Z,95.46
2019-01-29T22:33:01.434Z,95.54
2019-01-29T22:35:30.650Z,95.48
2019-01-29T22:37:59.841Z,95.42
2019-01-29T22:40:29.265Z,95.28
2019-01-29T22:42:59.147Z,95.29
2019-01-29T22:45:28.299Z,95.20
2019-01-29T22:47:57.422Z,95.12
2019-01-29T22:50:37.582Z,95.10
2019-01-29T22:53:06.711Z,95.14
2019-01-29T22:55:35.942Z,95.15
2019-01-29T22:58:05.063Z,95.07
2019-01-29T23:01:06.454Z,94.94
2019-01-29T23:03:42.106Z,94.88
2019-01-29T23:06:26.875Z,94.91
2019-01-29T23:08:55.999Z,94.97
2019-01-29T23:11:25.111Z,94.91
2019-01-29T23:13:54.227Z,94.84
2019-01-29T23:16:23.287Z,94.77
2019-01-29T23:18:52.413Z,94.88
2019-01-29T23:21:21.561Z,94.83
2019-01-29T23:23:50.890Z,95.20
2019-01-29T23:26:20.057Z,95.25
2019-01-29T23:28:49.174Z,95.14
2019-01-29T23:31:18.287Z,95.15
2019-01-29T23:33:47.447Z,95.21
2019-01-29T23:36:16.619Z,95.11
2019-01-29T23:38:47.443Z,95.00
2019-01-29T23:41:16.791Z,94.81
2019-01-29T23:43:45.972Z,95.02
2019-01-29T23:46:15.089Z,95.08
2019-01-29T23:48:44.189Z,95.26
2019-01-29T23:51:13.355Z,95.27
2019-01-29T23:53:42.447Z,95.23
2019-01-29T23:56:11.509Z,95.15
2019-01-29T23:58:40.737Z,95.25
